CheckWX is a tool to help pilots better visualize weather data.  It is not intended as a substitute for an official pre-flight weather briefing.

03:12:38 UTC

EGGD METAR
Bristol International Airport
Bristol, United Kingdom
Current

23 mins ago

EGGD 270250Z AUTO 21009KT 9999 BKN021 06/05 Q1003
Observed
Jan-27 @ 02:50 UTC
Wind
  • 210° at 9 KTS
Visibility
10,000+ meters
Flight Rules
MVFR
Cloud Levels
  • Broken at 2,100' AGL
Temperature
C / 43°F
Dewpoint
C / 41°F
Humidity
93%
Altimeter
29.62" Hg
Pressure
1002.92 hPa
Previous

53 mins ago

EGGD 270220Z AUTO 21011KT 9999 SCT021 07/05 Q1003
Observed
Jan-27 @ 02:20 UTC
Wind
  • 210° at 11 KTS
Visibility
10,000+ meters
Flight Rules
VFR
Cloud Levels
  • Scattered at 2,100' AGL
Temperature
C / 45°F
Dewpoint
C / 41°F
Humidity
87%
Altimeter
29.62" Hg
Pressure
1002.92 hPa
Previous

1 hour ago

EGGD 270150Z AUTO 21010KT 9999 FEW012 07/05 Q1003
Observed
Jan-27 @ 01:50 UTC
Wind
  • 210° at 10 KTS
Visibility
10,000+ meters
Flight Rules
VFR
Cloud Levels
  • Few at 1,200' AGL
Temperature
C / 45°F
Dewpoint
C / 41°F
Humidity
87%
Altimeter
29.62" Hg
Pressure
1002.92 hPa